sensor_id;sensor_type;location;lat;lon;timestamp;P1;durP1;ratioP1;P2;durP2;ratioP2
12024;SDS011;6073;53.230;10.444;2023-07-20T00:01:40;4.85;;;4.35;;
12024;SDS011;6073;53.230;10.444;2023-07-20T00:04:09;5.40;;;4.55;;
12024;SDS011;6073;53.230;10.444;2023-07-20T00:06:35;5.07;;;4.57;;
12024;SDS011;6073;53.230;10.444;2023-07-20T00:09:01;4.72;;;4.32;;
12024;SDS011;6073;53.230;10.444;2023-07-20T00:11:27;5.45;;;4.60;;
12024;SDS011;6073;53.230;10.444;2023-07-20T00:13:52;4.45;;;4.05;;
12024;SDS011;6073;53.230;10.444;2023-07-20T00:16:18;4.38;;;3.97;;
12024;SDS011;6073;53.230;10.444;2023-07-20T00:18:44;4.00;;;3.70;;
12024;SDS011;6073;53.230;10.444;2023-07-20T00:21:09;4.60;;;4.20;;
12024;SDS011;6073;53.230;10.444;2023-07-20T00:23:35;4.85;;;4.45;;
12024;SDS011;6073;53.230;10.444;2023-07-20T00:26:00;5.13;;;4.20;;
12024;SDS011;6073;53.230;10.444;2023-07-20T00:28:26;4.55;;;4.07;;
12024;SDS011;6073;53.230;10.444;2023-07-20T00:30:51;4.85;;;4.30;;
12024;SDS011;6073;53.230;10.444;2023-07-20T00:33:17;4.90;;;4.05;;
12024;SDS011;6073;53.230;10.444;2023-07-20T00:35:43;4.43;;;4.03;;
12024;SDS011;6073;53.230;10.444;2023-07-20T00:38:09;5.13;;;4.63;;
12024;SDS011;6073;53.230;10.444;2023-07-20T00:40:38;5.18;;;4.10;;
12024;SDS011;6073;53.230;10.444;2023-07-20T00:43:04;4.40;;;4.00;;
12024;SDS011;6073;53.230;10.444;2023-07-20T00:45:29;6.18;;;4.45;;
12024;SDS011;6073;53.230;10.444;2023-07-20T00:47:56;4.63;;;4.13;;
12024;SDS011;6073;53.230;10.444;2023-07-20T00:50:22;4.35;;;3.95;;
12024;SDS011;6073;53.230;10.444;2023-07-20T00:52:52;3.95;;;3.55;;
12024;SDS011;6073;53.230;10.444;2023-07-20T00:55:19;4.00;;;3.60;;
12024;SDS011;6073;53.230;10.444;2023-07-20T00:57:45;3.95;;;3.63;;
12024;SDS011;6073;53.230;10.444;2023-07-20T01:00:11;4.72;;;3.38;;
12024;SDS011;6073;53.230;10.444;2023-07-20T01:02:37;3.42;;;3.13;;
12024;SDS011;6073;53.230;10.444;2023-07-20T01:05:03;4.45;;;3.55;;
12024;SDS011;6073;53.230;10.444;2023-07-20T01:07:32;5.63;;;3.78;;
12024;SDS011;6073;53.230;10.444;2023-07-20T01:10:01;4.40;;;3.17;;
12024;SDS011;6073;53.230;10.444;2023-07-20T01:12:47;3.33;;;3.03;;
12024;SDS011;6073;53.230;10.444;2023-07-20T01:15:16;4.00;;;3.60;;
12024;SDS011;6073;53.230;10.444;2023-07-20T01:17:41;4.35;;;3.45;;
12024;SDS011;6073;53.230;10.444;2023-07-20T01:20:08;5.03;;;4.00;;
12024;SDS011;6073;53.230;10.444;2023-07-20T01:28:44;6.55;;;3.78;;
12024;SDS011;6073;53.230;10.444;2023-07-20T01:31:25;4.88;;;3.80;;
12024;SDS011;6073;53.230;10.444;2023-07-20T01:33:57;4.18;;;3.65;;
12024;SDS011;6073;53.230;10.444;2023-07-20T01:36:24;4.38;;;3.95;;
12024;SDS011;6073;53.230;10.444;2023-07-20T01:38:52;4.55;;;4.15;;
12024;SDS011;6073;53.230;10.444;2023-07-20T01:41:19;4.63;;;3.58;;
12024;SDS011;6073;53.230;10.444;2023-07-20T01:43:45;4.80;;;3.92;;
12024;SDS011;6073;53.230;10.444;2023-07-20T01:46:11;4.47;;;4.07;;
12024;SDS011;6073;53.230;10.444;2023-07-20T01:48:37;5.55;;;3.85;;
12024;SDS011;6073;53.230;10.444;2023-07-20T01:51:02;6.22;;;3.92;;
12024;SDS011;6073;53.230;10.444;2023-07-20T01:53:28;6.00;;;4.30;;
12024;SDS011;6073;53.230;10.444;2023-07-20T01:55:53;4.75;;;3.70;;
12024;SDS011;6073;53.230;10.444;2023-07-20T01:58:19;7.22;;;4.00;;
12024;SDS011;6073;53.230;10.444;2023-07-20T02:00:45;4.57;;;3.70;;
12024;SDS011;6073;53.230;10.444;2023-07-20T02:03:11;5.05;;;4.28;;
12024;SDS011;6073;53.230;10.444;2023-07-20T02:05:37;4.00;;;3.60;;
12024;SDS011;6073;53.230;10.444;2023-07-20T02:08:03;4.68;;;4.28;;
12024;SDS011;6073;53.230;10.444;2023-07-20T02:10:28;4.55;;;3.22;;
12024;SDS011;6073;53.230;10.444;2023-07-20T02:12:54;5.88;;;3.70;;
12024;SDS011;6073;53.230;10.444;2023-07-20T02:15:20;6.25;;;4.00;;
12024;SDS011;6073;53.230;10.444;2023-07-20T02:17:46;4.65;;;3.70;;
12024;SDS011;6073;53.230;10.444;2023-07-20T02:20:11;4.35;;;3.95;;
12024;SDS011;6073;53.230;10.444;2023-07-20T02:22:37;4.63;;;3.40;;
12024;SDS011;6073;53.230;10.444;2023-07-20T02:25:04;5.25;;;4.28;;
12024;SDS011;6073;53.230;10.444;2023-07-20T02:27:29;4.25;;;3.42;;
12024;SDS011;6073;53.230;10.444;2023-07-20T02:29:55;4.28;;;3.80;;
12024;SDS011;6073;53.230;10.444;2023-07-20T02:32:21;3.97;;;3.58;;
12024;SDS011;6073;53.230;10.444;2023-07-20T02:34:46;4.22;;;3.72;;
12024;SDS011;6073;53.230;10.444;2023-07-20T02:37:12;4.25;;;3.38;;
12024;SDS011;6073;53.230;10.444;2023-07-20T02:39:38;5.57;;;4.07;;
12024;SDS011;6073;53.230;10.444;2023-07-20T02:42:04;4.35;;;3.92;;
12024;SDS011;6073;53.230;10.444;2023-07-20T02:44:30;4.20;;;3.78;;
12024;SDS011;6073;53.230;10.444;2023-07-20T02:46:55;4.80;;;3.50;;
12024;SDS011;6073;53.230;10.444;2023-07-20T02:49:21;5.82;;;3.90;;
12024;SDS011;6073;53.230;10.444;2023-07-20T02:51:47;8.93;;;4.50;;
12024;SDS011;6073;53.230;10.444;2023-07-20T02:54:12;5.25;;;4.75;;
12024;SDS011;6073;53.230;10.444;2023-07-20T02:56:38;4.63;;;3.70;;
12024;SDS011;6073;53.230;10.444;2023-07-20T02:59:03;6.28;;;5.18;;
12024;SDS011;6073;53.230;10.444;2023-07-20T03:01:29;7.10;;;5.45;;
12024;SDS011;6073;53.230;10.444;2023-07-20T03:03:57;8.25;;;5.00;;
12024;SDS011;6073;53.230;10.444;2023-07-20T03:06:23;5.75;;;4.80;;
12024;SDS011;6073;53.230;10.444;2023-07-20T03:08:49;5.88;;;4.97;;
12024;SDS011;6073;53.230;10.444;2023-07-20T03:11:18;5.80;;;4.40;;
12024;SDS011;6073;53.230;10.444;2023-07-20T03:13:45;11.68;;;5.50;;
12024;SDS011;6073;53.230;10.444;2023-07-20T03:16:12;5.65;;;4.05;;
12024;SDS011;6073;53.230;10.444;2023-07-20T03:18:40;6.45;;;5.15;;
12024;SDS011;6073;53.230;10.444;2023-07-20T03:21:07;6.38;;;5.20;;
12024;SDS011;6073;53.230;10.444;2023-07-20T03:23:33;8.55;;;6.20;;
12024;SDS011;6073;53.230;10.444;2023-07-20T03:26:00;8.52;;;5.65;;
12024;SDS011;6073;53.230;10.444;2023-07-20T03:28:25;7.50;;;5.28;;
12024;SDS011;6073;53.230;10.444;2023-07-20T03:30:55;7.05;;;5.32;;
12024;SDS011;6073;53.230;10.444;2023-07-20T03:33:21;8.63;;;5.47;;
12024;SDS011;6073;53.230;10.444;2023-07-20T03:35:50;9.07;;;5.45;;
12024;SDS011;6073;53.230;10.444;2023-07-20T03:38:15;9.50;;;5.50;;
12024;SDS011;6073;53.230;10.444;2023-07-20T03:40:48;6.90;;;4.55;;
12024;SDS011;6073;53.230;10.444;2023-07-20T03:43:17;4.60;;;4.18;;
12024;SDS011;6073;53.230;10.444;2023-07-20T03:45:43;7.60;;;5.20;;
12024;SDS011;6073;53.230;10.444;2023-07-20T03:48:10;5.30;;;4.78;;
12024;SDS011;6073;53.230;10.444;2023-07-20T03:50:36;6.03;;;4.25;;
12024;SDS011;6073;53.230;10.444;2023-07-20T03:53:01;5.03;;;4.03;;
12024;SDS011;6073;53.230;10.444;2023-07-20T03:55:27;6.05;;;3.80;;
12024;SDS011;6073;53.230;10.444;2023-07-20T03:57:53;5.00;;;4.40;;
12024;SDS011;6073;53.230;10.444;2023-07-20T04:00:18;4.10;;;3.70;;
12024;SDS011;6073;53.230;10.444;2023-07-20T04:02:44;7.22;;;3.75;;
12024;SDS011;6073;53.230;10.444;2023-07-20T04:05:09;6.40;;;3.90;;
12024;SDS011;6073;53.230;10.444;2023-07-20T04:07:35;4.88;;;3.80;;
12024;SDS011;6073;53.230;10.444;2023-07-20T04:10:01;4.13;;;3.50;;
12024;SDS011;6073;53.230;10.444;2023-07-20T04:12:26;4.18;;;3.63;;
12024;SDS011;6073;53.230;10.444;2023-07-20T04:14:52;3.47;;;3.17;;
12024;SDS011;6073;53.230;10.444;2023-07-20T04:17:17;4.47;;;3.30;;
12024;SDS011;6073;53.230;10.444;2023-07-20T04:19:43;3.33;;;2.83;;
12024;SDS011;6073;53.230;10.444;2023-07-20T04:22:09;5.65;;;3.30;;
12024;SDS011;6073;53.230;10.444;2023-07-20T04:24:34;4.45;;;3.28;;
12024;SDS011;6073;53.230;10.444;2023-07-20T04:27:00;4.30;;;2.97;;
12024;SDS011;6073;53.230;10.444;2023-07-20T04:29:25;3.72;;;2.88;;
12024;SDS011;6073;53.230;10.444;2023-07-20T04:31:51;8.60;;;2.92;;
12024;SDS011;6073;53.230;10.444;2023-07-20T04:34:16;3.55;;;2.33;;
12024;SDS011;6073;53.230;10.444;2023-07-20T04:36:42;4.30;;;2.65;;
12024;SDS011;6073;53.230;10.444;2023-07-20T04:39:09;2.70;;;2.42;;
12024;SDS011;6073;53.230;10.444;2023-07-20T04:41:35;5.15;;;3.00;;
12024;SDS011;6073;53.230;10.444;2023-07-20T04:44:00;2.90;;;2.60;;
12024;SDS011;6073;53.230;10.444;2023-07-20T04:46:26;3.15;;;2.35;;
12024;SDS011;6073;53.230;10.444;2023-07-20T04:48:51;3.50;;;2.78;;
12024;SDS011;6073;53.230;10.444;2023-07-20T04:51:17;2.17;;;1.95;;
12024;SDS011;6073;53.230;10.444;2023-07-20T04:53:45;2.45;;;2.25;;
12024;SDS011;6073;53.230;10.444;2023-07-20T04:56:12;3.30;;;2.17;;
12024;SDS011;6073;53.230;10.444;2023-07-20T04:58:37;2.83;;;1.80;;
12024;SDS011;6073;53.230;10.444;2023-07-20T05:01:03;7.22;;;2.33;;
12024;SDS011;6073;53.230;10.444;2023-07-20T05:03:28;2.53;;;2.05;;
12024;SDS011;6073;53.230;10.444;2023-07-20T05:05:54;2.45;;;2.20;;
12024;SDS011;6073;53.230;10.444;2023-07-20T05:08:20;2.20;;;2.00;;
12024;SDS011;6073;53.230;10.444;2023-07-20T05:10:47;3.40;;;2.30;;
12024;SDS011;6073;53.230;10.444;2023-07-20T05:13:12;2.22;;;2.00;;
12024;SDS011;6073;53.230;10.444;2023-07-20T05:15:38;2.53;;;2.30;;
12024;SDS011;6073;53.230;10.444;2023-07-20T05:18:04;2.72;;;2.40;;
12024;SDS011;6073;53.230;10.444;2023-07-20T05:20:29;2.35;;;2.15;;
12024;SDS011;6073;53.230;10.444;2023-07-20T05:22:56;3.22;;;2.42;;
12024;SDS011;6073;53.230;10.444;2023-07-20T05:25:22;2.95;;;2.33;;
12024;SDS011;6073;53.230;10.444;2023-07-20T05:27:48;3.38;;;2.70;;
12024;SDS011;6073;53.230;10.444;2023-07-20T05:30:13;3.10;;;2.55;;
12024;SDS011;6073;53.230;10.444;2023-07-20T05:32:39;2.88;;;2.10;;
12024;SDS011;6073;53.230;10.444;2023-07-20T05:35:05;3.85;;;2.40;;
12024;SDS011;6073;53.230;10.444;2023-07-20T05:37:31;3.65;;;2.80;;
12024;SDS011;6073;53.230;10.444;2023-07-20T05:39:57;2.53;;;2.33;;
12024;SDS011;6073;53.230;10.444;2023-07-20T05:42:22;3.42;;;2.13;;
12024;SDS011;6073;53.230;10.444;2023-07-20T05:44:48;3.92;;;2.10;;
12024;SDS011;6073;53.230;10.444;2023-07-20T05:47:14;2.20;;;2.00;;
12024;SDS011;6073;53.230;10.444;2023-07-20T05:49:40;2.53;;;2.00;;
12024;SDS011;6073;53.230;10.444;2023-07-20T05:52:06;2.58;;;2.13;;
12024;SDS011;6073;53.230;10.444;2023-07-20T05:54:31;3.05;;;1.90;;
12024;SDS011;6073;53.230;10.444;2023-07-20T05:56:57;2.35;;;1.80;;
12024;SDS011;6073;53.230;10.444;2023-07-20T05:59:22;2.33;;;2.10;;
12024;SDS011;6073;53.230;10.444;2023-07-20T06:01:49;2.47;;;1.90;;
12024;SDS011;6073;53.230;10.444;2023-07-20T06:04:14;2.58;;;1.88;;
12024;SDS011;6073;53.230;10.444;2023-07-20T06:06:40;3.63;;;2.20;;
12024;SDS011;6073;53.230;10.444;2023-07-20T06:09:06;2.95;;;1.70;;
12024;SDS011;6073;53.230;10.444;2023-07-20T06:11:35;2.55;;;1.70;;
12024;SDS011;6073;53.230;10.444;2023-07-20T06:14:01;1.95;;;1.83;;
12024;SDS011;6073;53.230;10.444;2023-07-20T06:16:26;3.17;;;1.90;;
12024;SDS011;6073;53.230;10.444;2023-07-20T06:18:52;3.70;;;1.70;;
12024;SDS011;6073;53.230;10.444;2023-07-20T06:21:17;2.03;;;1.42;;
12024;SDS011;6073;53.230;10.444;2023-07-20T06:23:43;3.60;;;1.65;;
12024;SDS011;6073;53.230;10.444;2023-07-20T06:26:09;1.50;;;1.40;;
12024;SDS011;6073;53.230;10.444;2023-07-20T06:28:34;2.30;;;1.60;;
12024;SDS011;6073;53.230;10.444;2023-07-20T06:31:00;2.47;;;1.30;;
12024;SDS011;6073;53.230;10.444;2023-07-20T06:33:26;2.35;;;1.50;;
12024;SDS011;6073;53.230;10.444;2023-07-20T06:35:51;1.80;;;1.23;;
12024;SDS011;6073;53.230;10.444;2023-07-20T06:38:18;2.83;;;1.42;;
12024;SDS011;6073;53.230;10.444;2023-07-20T06:40:45;1.55;;;1.15;;
12024;SDS011;6073;53.230;10.444;2023-07-20T06:43:11;1.30;;;1.20;;
12024;SDS011;6073;53.230;10.444;2023-07-20T06:45:37;1.48;;;1.25;;
12024;SDS011;6073;53.230;10.444;2023-07-20T06:48:03;1.45;;;1.33;;
12024;SDS011;6073;53.230;10.444;2023-07-20T06:50:28;1.23;;;1.13;;
12024;SDS011;6073;53.230;10.444;2023-07-20T06:52:54;1.23;;;1.00;;
12024;SDS011;6073;53.230;10.444;2023-07-20T06:55:20;1.50;;;1.40;;
12024;SDS011;6073;53.230;10.444;2023-07-20T06:57:46;1.65;;;1.40;;
12024;SDS011;6073;53.230;10.444;2023-07-20T07:00:12;1.30;;;1.10;;
12024;SDS011;6073;53.230;10.444;2023-07-20T07:02:37;2.33;;;1.38;;
12024;SDS011;6073;53.230;10.444;2023-07-20T07:05:03;1.42;;;0.90;;
12024;SDS011;6073;53.230;10.444;2023-07-20T07:07:29;1.40;;;1.27;;
12024;SDS011;6073;53.230;10.444;2023-07-20T07:09:54;2.17;;;1.50;;
12024;SDS011;6073;53.230;10.444;2023-07-20T07:12:20;2.10;;;0.90;;
12024;SDS011;6073;53.230;10.444;2023-07-20T07:14:46;1.80;;;0.90;;
12024;SDS011;6073;53.230;10.444;2023-07-20T07:17:11;2.90;;;1.20;;
12024;SDS011;6073;53.230;10.444;2023-07-20T07:19:37;1.10;;;1.00;;
12024;SDS011;6073;53.230;10.444;2023-07-20T07:22:03;1.15;;;1.05;;
12024;SDS011;6073;53.230;10.444;2023-07-20T07:24:29;1.88;;;1.00;;
12024;SDS011;6073;53.230;10.444;2023-07-20T07:26:58;1.25;;;1.15;;
12024;SDS011;6073;53.230;10.444;2023-07-20T07:29:24;1.25;;;0.90;;
12024;SDS011;6073;53.230;10.444;2023-07-20T07:31:50;2.72;;;1.38;;
12024;SDS011;6073;53.230;10.444;2023-07-20T07:34:16;1.08;;;0.93;;
12024;SDS011;6073;53.230;10.444;2023-07-20T07:36:41;0.80;;;0.80;;
12024;SDS011;6073;53.230;10.444;2023-07-20T07:39:07;1.13;;;1.02;;
12024;SDS011;6073;53.230;10.444;2023-07-20T07:41:34;1.88;;;0.95;;
12024;SDS011;6073;53.230;10.444;2023-07-20T07:44:00;1.40;;;1.00;;
12024;SDS011;6073;53.230;10.444;2023-07-20T07:46:25;1.60;;;1.00;;
12024;SDS011;6073;53.230;10.444;2023-07-20T07:48:51;2.55;;;1.10;;
12024;SDS011;6073;53.230;10.444;2023-07-20T07:51:16;2.47;;;1.25;;
12024;SDS011;6073;53.230;10.444;2023-07-20T07:53:42;2.05;;;1.10;;
12024;SDS011;6073;53.230;10.444;2023-07-20T07:56:08;1.75;;;0.90;;
12024;SDS011;6073;53.230;10.444;2023-07-20T07:58:34;1.00;;;0.73;;
12024;SDS011;6073;53.230;10.444;2023-07-20T08:01:00;2.53;;;1.02;;
12024;SDS011;6073;53.230;10.444;2023-07-20T08:03:26;2.25;;;1.15;;
12024;SDS011;6073;53.230;10.444;2023-07-20T08:05:53;1.27;;;0.80;;
12024;SDS011;6073;53.230;10.444;2023-07-20T08:08:20;1.70;;;1.23;;
12024;SDS011;6073;53.230;10.444;2023-07-20T08:10:46;1.92;;;0.95;;
12024;SDS011;6073;53.230;10.444;2023-07-20T08:13:12;3.67;;;1.10;;
12024;SDS011;6073;53.230;10.444;2023-07-20T08:15:38;1.33;;;0.82;;
12024;SDS011;6073;53.230;10.444;2023-07-20T08:18:04;2.45;;;1.02;;
12024;SDS011;6073;53.230;10.444;2023-07-20T08:20:30;1.65;;;0.93;;
12024;SDS011;6073;53.230;10.444;2023-07-20T08:22:57;1.50;;;1.02;;
12024;SDS011;6073;53.230;10.444;2023-07-20T08:25:24;0.85;;;0.80;;
12024;SDS011;6073;53.230;10.444;2023-07-20T08:27:50;1.75;;;1.08;;
12024;SDS011;6073;53.230;10.444;2023-07-20T08:30:16;1.52;;;1.13;;
12024;SDS011;6073;53.230;10.444;2023-07-20T08:32:42;2.80;;;1.15;;
12024;SDS011;6073;53.230;10.444;2023-07-20T08:35:07;1.50;;;0.93;;
12024;SDS011;6073;53.230;10.444;2023-07-20T08:37:33;3.25;;;1.23;;
12024;SDS011;6073;53.230;10.444;2023-07-20T08:39:59;2.67;;;1.10;;
12024;SDS011;6073;53.230;10.444;2023-07-20T08:42:25;0.95;;;0.90;;
12024;SDS011;6073;53.230;10.444;2023-07-20T08:44:51;1.73;;;1.00;;
12024;SDS011;6073;53.230;10.444;2023-07-20T08:47:18;1.70;;;1.10;;
12024;SDS011;6073;53.230;10.444;2023-07-20T08:49:45;1.77;;;0.98;;
12024;SDS011;6073;53.230;10.444;2023-07-20T08:52:13;1.73;;;0.90;;
12024;SDS011;6073;53.230;10.444;2023-07-20T08:54:39;2.58;;;0.93;;
12024;SDS011;6073;53.230;10.444;2023-07-20T08:57:05;2.83;;;0.93;;
12024;SDS011;6073;53.230;10.444;2023-07-20T08:59:31;1.10;;;0.82;;
12024;SDS011;6073;53.230;10.444;2023-07-20T09:01:59;1.80;;;1.00;;
12024;SDS011;6073;53.230;10.444;2023-07-20T09:04:25;1.08;;;1.00;;
12024;SDS011;6073;53.230;10.444;2023-07-20T09:06:51;2.83;;;1.10;;
12024;SDS011;6073;53.230;10.444;2023-07-20T09:09:17;2.28;;;1.15;;
12024;SDS011;6073;53.230;10.444;2023-07-20T09:11:43;2.72;;;1.13;;
12024;SDS011;6073;53.230;10.444;2023-07-20T09:14:12;1.67;;;1.13;;
12024;SDS011;6073;53.230;10.444;2023-07-20T09:16:52;1.60;;;1.20;;
12024;SDS011;6073;53.230;10.444;2023-07-20T09:19:19;1.40;;;0.93;;
12024;SDS011;6073;53.230;10.444;2023-07-20T09:21:49;0.88;;;0.82;;
12024;SDS011;6073;53.230;10.444;2023-07-20T09:24:16;2.55;;;1.00;;
12024;SDS011;6073;53.230;10.444;2023-07-20T09:26:44;1.85;;;0.98;;
12024;SDS011;6073;53.230;10.444;2023-07-20T09:29:13;1.52;;;1.20;;
12024;SDS011;6073;53.230;10.444;2023-07-20T09:31:39;1.35;;;0.80;;
12024;SDS011;6073;53.230;10.444;2023-07-20T09:34:07;0.93;;;0.80;;
12024;SDS011;6073;53.230;10.444;2023-07-20T09:36:33;1.70;;;0.88;;
12024;SDS011;6073;53.230;10.444;2023-07-20T09:39:00;2.72;;;1.33;;
12024;SDS011;6073;53.230;10.444;2023-07-20T09:41:27;2.30;;;1.00;;
12024;SDS011;6073;53.230;10.444;2023-07-20T09:43:53;1.20;;;1.10;;
12024;SDS011;6073;53.230;10.444;2023-07-20T09:46:19;1.55;;;1.00;;
12024;SDS011;6073;53.230;10.444;2023-07-20T09:48:52;2.25;;;1.15;;
12024;SDS011;6073;53.230;10.444;2023-07-20T09:51:23;1.77;;;1.25;;
12024;SDS011;6073;53.230;10.444;2023-07-20T09:53:50;2.42;;;1.00;;
12024;SDS011;6073;53.230;10.444;2023-07-20T09:56:17;2.50;;;1.30;;
12024;SDS011;6073;53.230;10.444;2023-07-20T09:58:46;1.90;;;1.50;;
12024;SDS011;6073;53.230;10.444;2023-07-20T10:01:13;3.53;;;1.50;;
12024;SDS011;6073;53.230;10.444;2023-07-20T10:03:43;2.25;;;1.33;;
12024;SDS011;6073;53.230;10.444;2023-07-20T10:06:12;1.80;;;1.20;;
12024;SDS011;6073;53.230;10.444;2023-07-20T10:08:45;3.53;;;1.95;;
12024;SDS011;6073;53.230;10.444;2023-07-20T10:11:12;3.70;;;1.92;;
12024;SDS011;6073;53.230;10.444;2023-07-20T10:13:40;4.55;;;2.10;;
12024;SDS011;6073;53.230;10.444;2023-07-20T10:16:11;2.72;;;1.70;;
12024;SDS011;6073;53.230;10.444;2023-07-20T10:21:23;2.65;;;2.00;;
12024;SDS011;6073;53.230;10.444;2023-07-20T10:23:49;4.75;;;2.00;;
12024;SDS011;6073;53.230;10.444;2023-07-20T10:26:15;3.28;;;1.85;;
12024;SDS011;6073;53.230;10.444;2023-07-20T10:28:40;4.93;;;2.05;;
12024;SDS011;6073;53.230;10.444;2023-07-20T10:31:07;2.30;;;2.10;;
12024;SDS011;6073;53.230;10.444;2023-07-20T10:33:34;3.83;;;1.80;;
12024;SDS011;6073;53.230;10.444;2023-07-20T10:36:02;1.83;;;1.55;;
12024;SDS011;6073;53.230;10.444;2023-07-20T10:41:15;3.92;;;1.73;;
12024;SDS011;6073;53.230;10.444;2023-07-20T10:43:44;5.25;;;2.33;;
12024;SDS011;6073;53.230;10.444;2023-07-20T10:46:11;3.00;;;1.65;;
12024;SDS011;6073;53.230;10.444;2023-07-20T10:48:58;1.77;;;1.63;;
12024;SDS011;6073;53.230;10.444;2023-07-20T10:51:27;3.53;;;1.50;;
12024;SDS011;6073;53.230;10.444;2023-07-20T10:53:54;4.00;;;1.60;;
12024;SDS011;6073;53.230;10.444;2023-07-20T10:56:25;3.80;;;1.75;;
12024;SDS011;6073;53.230;10.444;2023-07-20T10:58:59;1.90;;;1.58;;
12024;SDS011;6073;53.230;10.444;2023-07-20T11:01:28;2.40;;;1.70;;
12024;SDS011;6073;53.230;10.444;2023-07-20T11:03:58;2.38;;;1.42;;
12024;SDS011;6073;53.230;10.444;2023-07-20T11:11:51;1.80;;;1.58;;
12024;SDS011;6073;53.230;10.444;2023-07-20T11:14:42;3.05;;;1.55;;
12024;SDS011;6073;53.230;10.444;2023-07-20T11:17:22;1.88;;;1.42;;
12024;SDS011;6073;53.230;10.444;2023-07-20T11:19:58;2.30;;;1.70;;
12024;SDS011;6073;53.230;10.444;2023-07-20T11:22:25;1.95;;;1.50;;
12024;SDS011;6073;53.230;10.444;2023-07-20T11:24:54;3.10;;;1.80;;
12024;SDS011;6073;53.230;10.444;2023-07-20T11:27:20;2.95;;;1.70;;
12024;SDS011;6073;53.230;10.444;2023-07-20T11:29:47;3.25;;;2.00;;
12024;SDS011;6073;53.230;10.444;2023-07-20T11:32:19;3.00;;;1.98;;
12024;SDS011;6073;53.230;10.444;2023-07-20T11:34:49;4.55;;;1.65;;
12024;SDS011;6073;53.230;10.444;2023-07-20T11:37:15;3.45;;;1.50;;
12024;SDS011;6073;53.230;10.444;2023-07-20T11:39:41;2.67;;;1.38;;
12024;SDS011;6073;53.230;10.444;2023-07-20T11:42:07;2.97;;;1.58;;
12024;SDS011;6073;53.230;10.444;2023-07-20T11:44:33;2.03;;;1.23;;
12024;SDS011;6073;53.230;10.444;2023-07-20T11:46:59;1.63;;;1.10;;
12024;SDS011;6073;53.230;10.444;2023-07-20T11:49:30;2.65;;;1.23;;
12024;SDS011;6073;53.230;10.444;2023-07-20T11:51:59;3.17;;;1.20;;
12024;SDS011;6073;53.230;10.444;2023-07-20T11:54:25;1.20;;;1.10;;
12024;SDS011;6073;53.230;10.444;2023-07-20T11:56:54;1.30;;;1.20;;
12024;SDS011;6073;53.230;10.444;2023-07-20T11:59:21;2.72;;;1.45;;
12024;SDS011;6073;53.230;10.444;2023-07-20T12:01:46;1.30;;;1.20;;
12024;SDS011;6073;53.230;10.444;2023-07-20T12:04:12;2.28;;;1.20;;
12024;SDS011;6073;53.230;10.444;2023-07-20T12:06:38;6.32;;;1.40;;
12024;SDS011;6073;53.230;10.444;2023-07-20T12:09:04;1.90;;;1.20;;
12024;SDS011;6073;53.230;10.444;2023-07-20T12:11:33;2.10;;;1.40;;
12024;SDS011;6073;53.230;10.444;2023-07-20T12:14:00;2.28;;;1.38;;
12024;SDS011;6073;53.230;10.444;2023-07-20T12:16:26;2.45;;;1.17;;
12024;SDS011;6073;53.230;10.444;2023-07-20T12:19:06;2.72;;;1.10;;
12024;SDS011;6073;53.230;10.444;2023-07-20T12:21:36;2.15;;;1.17;;
12024;SDS011;6073;53.230;10.444;2023-07-20T12:24:07;2.15;;;1.35;;
12024;SDS011;6073;53.230;10.444;2023-07-20T12:26:36;2.28;;;1.27;;
12024;SDS011;6073;53.230;10.444;2023-07-20T12:29:02;2.28;;;1.30;;
12024;SDS011;6073;53.230;10.444;2023-07-20T12:31:29;1.75;;;1.05;;
12024;SDS011;6073;53.230;10.444;2023-07-20T12:33:56;2.25;;;0.95;;
12024;SDS011;6073;53.230;10.444;2023-07-20T12:36:22;0.93;;;0.73;;
12024;SDS011;6073;53.230;10.444;2023-07-20T12:38:47;3.10;;;1.25;;
12024;SDS011;6073;53.230;10.444;2023-07-20T12:41:13;2.70;;;0.98;;
12024;SDS011;6073;53.230;10.444;2023-07-20T12:43:39;1.02;;;0.70;;
12024;SDS011;6073;53.230;10.444;2023-07-20T12:46:06;2.03;;;0.70;;
12024;SDS011;6073;53.230;10.444;2023-07-20T12:48:31;1.48;;;1.10;;
12024;SDS011;6073;53.230;10.444;2023-07-20T12:50:58;4.50;;;1.10;;
12024;SDS011;6073;53.230;10.444;2023-07-20T12:53:23;1.67;;;1.00;;
12024;SDS011;6073;53.230;10.444;2023-07-20T12:55:49;2.17;;;1.08;;
12024;SDS011;6073;53.230;10.444;2023-07-20T12:58:14;2.97;;;1.23;;
12024;SDS011;6073;53.230;10.444;2023-07-20T13:00:40;1.02;;;0.90;;
12024;SDS011;6073;53.230;10.444;2023-07-20T13:03:06;1.85;;;0.90;;
12024;SDS011;6073;53.230;10.444;2023-07-20T13:05:33;2.95;;;1.40;;
12024;SDS011;6073;53.230;10.444;2023-07-20T13:08:00;3.30;;;1.25;;
12024;SDS011;6073;53.230;10.444;2023-07-20T13:10:26;1.20;;;0.90;;
12024;SDS011;6073;53.230;10.444;2023-07-20T13:12:52;2.63;;;1.25;;
12024;SDS011;6073;53.230;10.444;2023-07-20T13:15:18;2.67;;;1.30;;
12024;SDS011;6073;53.230;10.444;2023-07-20T13:17:44;3.33;;;1.20;;
12024;SDS011;6073;53.230;10.444;2023-07-20T13:20:09;2.60;;;1.02;;
12024;SDS011;6073;53.230;10.444;2023-07-20T13:22:39;2.42;;;1.17;;
12024;SDS011;6073;53.230;10.444;2023-07-20T13:25:06;2.67;;;1.50;;
12024;SDS011;6073;53.230;10.444;2023-07-20T13:27:32;2.05;;;1.10;;
12024;SDS011;6073;53.230;10.444;2023-07-20T13:29:59;2.38;;;1.10;;
12024;SDS011;6073;53.230;10.444;2023-07-20T13:32:25;3.88;;;1.20;;
12024;SDS011;6073;53.230;10.444;2023-07-20T13:34:51;2.38;;;1.10;;
12024;SDS011;6073;53.230;10.444;2023-07-20T13:37:17;0.85;;;0.82;;
12024;SDS011;6073;53.230;10.444;2023-07-20T13:39:42;3.10;;;1.35;;
12024;SDS011;6073;53.230;10.444;2023-07-20T13:42:08;2.47;;;1.10;;
12024;SDS011;6073;53.230;10.444;2023-07-20T13:44:35;4.82;;;1.50;;
12024;SDS011;6073;53.230;10.444;2023-07-20T13:47:02;2.67;;;0.95;;
12024;SDS011;6073;53.230;10.444;2023-07-20T13:49:30;1.70;;;0.80;;
12024;SDS011;6073;53.230;10.444;2023-07-20T13:51:56;2.53;;;0.95;;
12024;SDS011;6073;53.230;10.444;2023-07-20T13:54:22;0.82;;;0.63;;
12024;SDS011;6073;53.230;10.444;2023-07-20T13:56:48;1.52;;;0.90;;
12024;SDS011;6073;53.230;10.444;2023-07-20T13:59:13;1.63;;;0.98;;
12024;SDS011;6073;53.230;10.444;2023-07-20T14:01:39;0.75;;;0.75;;
12024;SDS011;6073;53.230;10.444;2023-07-20T14:04:04;0.98;;;0.90;;
12024;SDS011;6073;53.230;10.444;2023-07-20T14:06:30;1.80;;;0.88;;
12024;SDS011;6073;53.230;10.444;2023-07-20T14:08:57;2.67;;;0.90;;
12024;SDS011;6073;53.230;10.444;2023-07-20T14:11:23;1.65;;;1.08;;
12024;SDS011;6073;53.230;10.444;2023-07-20T14:13:52;2.42;;;1.00;;
12024;SDS011;6073;53.230;10.444;2023-07-20T14:16:18;1.50;;;1.02;;
12024;SDS011;6073;53.230;10.444;2023-07-20T14:18:47;1.42;;;0.93;;
12024;SDS011;6073;53.230;10.444;2023-07-20T14:21:14;0.77;;;0.75;;
12024;SDS011;6073;53.230;10.444;2023-07-20T14:23:46;1.45;;;1.02;;
12024;SDS011;6073;53.230;10.444;2023-07-20T14:26:14;1.55;;;1.02;;
12024;SDS011;6073;53.230;10.444;2023-07-20T14:28:40;1.90;;;1.15;;
12024;SDS011;6073;53.230;10.444;2023-07-20T14:31:05;2.40;;;1.08;;
12024;SDS011;6073;53.230;10.444;2023-07-20T14:33:31;3.08;;;1.52;;
12024;SDS011;6073;53.230;10.444;2023-07-20T14:35:57;3.00;;;1.13;;
12024;SDS011;6073;53.230;10.444;2023-07-20T14:38:22;1.75;;;1.13;;
12024;SDS011;6073;53.230;10.444;2023-07-20T14:40:48;2.20;;;1.13;;
12024;SDS011;6073;53.230;10.444;2023-07-20T14:43:14;1.92;;;1.30;;
12024;SDS011;6073;53.230;10.444;2023-07-20T14:45:42;3.10;;;1.40;;
12024;SDS011;6073;53.230;10.444;2023-07-20T14:48:08;1.92;;;1.17;;
12024;SDS011;6073;53.230;10.444;2023-07-20T14:50:34;1.73;;;1.23;;
12024;SDS011;6073;53.230;10.444;2023-07-20T14:53:00;2.50;;;1.30;;
12024;SDS011;6073;53.230;10.444;2023-07-20T14:55:25;2.92;;;1.35;;
12024;SDS011;6073;53.230;10.444;2023-07-20T14:57:51;3.85;;;1.55;;
12024;SDS011;6073;53.230;10.444;2023-07-20T15:00:17;3.28;;;1.50;;
12024;SDS011;6073;53.230;10.444;2023-07-20T15:02:43;2.65;;;1.50;;